Time;durP1;ratioP1;P1;durP2;ratioP2;P2;SDS_P1;SDS_P2;PMS_P1;PMS_P2;Temp;Humidity;BMP_temperature;BMP_pressure;BME280_temperature;BME280_humidity;BME280_pressure;Samples;Min_cycle;Max_cycle;Signal;HPM_P1;HPM_P2
2023/02/07 00:00:23;;;;;;;12.93;12.50;;;18.20;52.00;;;;;;5101570;28;20524;-62
2023/02/07 00:02:50;;;;;;;13.50;12.90;;;18.20;52.00;;;;;;5115731;28;20922;-61
2023/02/07 00:05:18;;;;;;;13.30;12.80;;;18.20;52.00;;;;;;5115797;28;20528;-62
2023/02/07 00:07:45;;;;;;;12.50;12.10;;;18.10;51.90;;;;;;5115833;28;20477;-63
2023/02/07 00:10:12;;;;;;;12.73;12.23;;;18.20;52.00;;;;;;5110142;28;20537;-62
2023/02/07 00:12:39;;;;;;;13.07;12.50;;;18.10;51.90;;;;;;5095281;28;20528;-62
2023/02/07 00:15:07;;;;;;;12.93;12.40;;;18.10;52.00;;;;;;5095165;28;20536;-61
2023/02/07 00:17:34;;;;;;;13.33;12.77;;;18.10;51.90;;;;;;5094923;28;20495;-63
2023/02/07 00:20:01;;;;;;;13.17;12.67;;;18.10;51.90;;;;;;5097622;28;20549;-61
2023/02/07 00:22:29;;;;;;;13.57;12.97;;;18.10;51.90;;;;;;5096184;28;20482;-62
2023/02/07 00:24:57;;;;;;;13.83;13.23;;;18.10;51.90;;;;;;5094983;28;20465;-62
2023/02/07 00:27:24;;;;;;;13.53;12.93;;;18.10;51.90;;;;;;5094960;28;20517;-62
2023/02/07 00:29:51;;;;;;;14.27;13.70;;;18.10;51.90;;;;;;5095697;28;20546;-61
2023/02/07 00:32:17;;;;;;;13.40;12.90;;;18.10;51.90;;;;;;5115040;28;20548;-62
2023/02/07 00:34:46;;;;;;;13.07;12.47;;;18.10;51.90;;;;;;5115134;28;20977;-62
2023/02/07 00:37:13;;;;;;;13.00;12.50;;;18.10;51.90;;;;;;5115066;28;20528;-62
2023/02/07 00:39:41;;;;;;;13.80;13.20;;;18.00;51.90;;;;;;5114783;28;20450;-62
2023/02/07 00:42:08;;;;;;;13.10;12.50;;;18.10;51.90;;;;;;5114753;28;20523;-61
2023/02/07 00:44:35;;;;;;;13.00;12.47;;;18.00;51.80;;;;;;5114967;28;20532;-61
2023/02/07 00:47:02;;;;;;;13.67;12.90;;;18.00;51.80;;;;;;5113916;28;21030;-62
2023/02/07 00:49:29;;;;;;;13.50;12.90;;;18.00;51.70;;;;;;5102563;28;20478;-61
2023/02/07 00:51:55;;;;;;;14.07;13.53;;;18.00;51.70;;;;;;5094235;28;20485;-60
2023/02/07 00:54:22;;;;;;;13.20;12.70;;;18.00;51.70;;;;;;5094319;28;20489;-62
2023/02/07 00:56:50;;;;;;;14.03;13.50;;;18.00;51.80;;;;;;5097671;28;20441;-63
2023/02/07 00:59:17;;;;;;;14.50;13.90;;;18.00;51.80;;;;;;5102218;28;20477;-62
2023/02/07 01:01:44;;;;;;;13.50;13.00;;;18.00;51.80;;;;;;5114429;28;20874;-61
2023/02/07 01:04:11;;;;;;;13.30;12.80;;;18.00;51.80;;;;;;5114558;28;20488;-62
2023/02/07 01:06:38;;;;;;;13.47;13.07;;;18.00;51.80;;;;;;5112551;28;20528;-61
2023/02/07 01:09:06;;;;;;;14.20;13.60;;;18.00;51.70;;;;;;5094209;28;20447;-62
2023/02/07 01:11:33;;;;;;;12.97;12.47;;;18.00;51.70;;;;;;5093959;28;20545;-62
2023/02/07 01:14:01;;;;;;;12.83;12.33;;;18.00;52.20;;;;;;5094105;28;20521;-62
2023/02/07 01:16:30;;;;;;;13.30;12.60;;;18.00;52.30;;;;;;5093887;28;20453;-62
2023/02/07 01:18:57;;;;;;;12.37;11.97;;;18.00;51.70;;;;;;5073551;28;21008;-62
2023/02/07 01:21:26;;;;;;;13.43;12.83;;;18.00;51.70;;;;;;5073418;28;20481;-61
2023/02/07 01:23:55;;;;;;;13.17;12.73;;;18.00;51.70;;;;;;5073468;28;20479;-62
2023/02/07 01:26:22;;;;;;;13.80;13.20;;;18.00;51.70;;;;;;5099665;28;20445;-62
2023/02/07 01:28:49;;;;;;;13.33;12.73;;;18.00;51.70;;;;;;5114066;28;20449;-62
2023/02/07 01:31:17;;;;;;;14.23;13.63;;;18.00;51.70;;;;;;5113934;28;20560;-61
2023/02/07 01:33:44;;;;;;;13.20;12.70;;;18.00;51.70;;;;;;5114094;28;20472;-61
2023/02/07 01:36:14;;;;;;;13.23;12.73;;;18.00;51.70;;;;;;5102447;28;20876;-62
2023/02/07 01:38:42;;;;;;;12.50;12.20;;;18.00;51.60;;;;;;5093830;28;20526;-61
2023/02/07 01:41:10;;;;;;;13.33;12.83;;;17.90;51.60;;;;;;5093460;28;20550;-62
2023/02/07 01:43:53;;;;;;;12.40;12.00;;;17.90;51.50;;;;;;5093970;28;20576;-62
2023/02/07 01:46:21;;;;;;;12.70;12.20;;;17.90;51.60;;;;;;5105812;28;20521;-61
2023/02/07 01:48:49;;;;;;;13.83;13.40;;;17.90;51.50;;;;;;5113852;28;20536;-62
2023/02/07 01:51:16;;;;;;;13.40;12.80;;;17.90;51.50;;;;;;5113722;28;20461;-63
2023/02/07 01:53:43;;;;;;;13.30;12.80;;;17.90;51.50;;;;;;5114249;28;20524;-62
2023/02/07 01:56:12;;;;;;;13.20;12.60;;;17.90;51.50;;;;;;5103273;28;20521;-62
2023/02/07 01:58:40;;;;;;;13.30;12.80;;;17.90;51.50;;;;;;5094409;28;20545;-62
2023/02/07 02:01:13;;;;;;;14.43;13.87;;;17.90;51.40;;;;;;5094512;28;20580;-62
2023/02/07 02:03:45;;;;;;;13.33;12.93;;;17.90;51.50;;;;;;5097880;28;20814;-62
2023/02/07 02:06:14;;;;;;;13.07;12.67;;;17.90;51.40;;;;;;5115263;28;20862;-62
2023/02/07 02:08:41;;;;;;;13.80;13.30;;;17.80;51.30;;;;;;5115215;28;20532;-63
2023/02/07 02:11:20;;;;;;;12.30;11.90;;;17.80;51.30;;;;;;5114828;28;20489;-62
2023/02/07 02:13:57;;;;;;;13.80;13.13;;;17.80;51.30;;;;;;5110900;28;20530;-63
2023/02/07 02:16:32;;;;;;;13.50;13.00;;;17.80;51.30;;;;;;5092802;28;21003;-62
2023/02/07 02:19:39;;;;;;;13.03;12.53;;;17.80;51.30;;;;;;5092825;28;20453;-64
2023/02/07 02:22:34;;;;;;;13.10;12.60;;;17.80;51.30;;;;;;5081820;28;20561;-64
2023/02/07 02:25:37;;;;;;;12.80;12.30;;;17.80;51.20;;;;;;5100909;28;20532;-65
2023/02/07 02:28:39;;;;;;;13.70;13.10;;;17.80;51.30;;;;;;5113031;28;20447;-63
2023/02/07 02:31:34;;;;;;;13.80;13.30;;;17.80;51.30;;;;;;5112560;28;21037;-63
2023/02/07 02:34:07;;;;;;;13.00;12.50;;;17.80;51.40;;;;;;5072287;28;20865;-64
2023/02/07 02:36:40;;;;;;;13.27;12.87;;;17.80;51.40;;;;;;5072195;28;20879;-64
2023/02/07 02:39:12;;;;;;;13.70;13.20;;;17.80;51.40;;;;;;5072004;28;20447;-64
2023/02/07 02:41:47;;;;;;;12.53;11.93;;;17.80;51.40;;;;;;5080036;28;20546;-63
2023/02/07 02:44:20;;;;;;;13.20;12.70;;;17.80;51.90;;;;;;5112655;28;21091;-63
2023/02/07 02:46:48;;;;;;;13.40;12.80;;;17.80;51.30;;;;;;5112960;28;21026;-62
2023/02/07 02:49:18;;;;;;;13.37;12.87;;;17.80;51.30;;;;;;5112377;28;20876;-63
2023/02/07 02:51:44;;;;;;;12.63;12.20;;;17.80;51.30;;;;;;5107750;28;20549;-63
2023/02/07 02:54:28;;;;;;;13.77;13.27;;;17.80;51.30;;;;;;5092245;28;20537;-63
2023/02/07 02:57:19;;;;;;;13.33;12.77;;;17.80;51.20;;;;;;5092165;28;20473;-63
2023/02/07 03:00:06;;;;;;;13.07;12.63;;;17.80;51.20;;;;;;5091837;28;20534;-63
2023/02/07 03:02:43;;;;;;;13.47;12.87;;;17.80;51.10;;;;;;5102931;28;20520;-62
2023/02/07 03:05:34;;;;;;;14.60;14.10;;;17.80;51.20;;;;;;5112518;28;21027;-63
2023/02/07 03:08:07;;;;;;;12.67;12.27;;;17.80;51.10;;;;;;5112403;28;20540;-64
2023/02/07 03:10:40;;;;;;;12.80;12.37;;;17.80;51.10;;;;;;5103024;28;20549;-63
2023/02/07 03:13:13;;;;;;;12.20;11.80;;;17.80;51.10;;;;;;5092008;28;20528;-63
2023/02/07 03:15:53;;;;;;;14.07;13.47;;;17.70;51.00;;;;;;5092050;28;20528;-63
2023/02/07 03:18:26;;;;;;;13.33;12.83;;;17.70;51.00;;;;;;5091862;28;20453;-64
2023/02/07 03:21:00;;;;;;;12.60;12.20;;;17.70;50.90;;;;;;5101929;28;20556;-62
2023/02/07 03:23:29;;;;;;;13.77;13.13;;;17.70;50.90;;;;;;5112038;28;20488;-60
2023/02/07 03:25:58;;;;;;;13.43;12.87;;;17.70;50.90;;;;;;5095210;28;21022;-63
2023/02/07 03:28:28;;;;;;;13.57;13.07;;;17.70;50.90;;;;;;5091817;28;20529;-64
2023/02/07 03:30:56;;;;;;;13.07;12.60;;;17.70;50.90;;;;;;5101539;28;20540;-64
2023/02/07 03:33:25;;;;;;;13.13;12.60;;;17.70;50.90;;;;;;5112017;28;20481;-64
2023/02/07 03:36:00;;;;;;;12.90;12.40;;;17.70;50.90;;;;;;5112042;28;20549;-62
2023/02/07 03:38:27;;;;;;;13.33;12.83;;;17.70;50.90;;;;;;5112095;28;20523;-64
2023/02/07 03:40:59;;;;;;;13.20;12.70;;;17.70;50.90;;;;;;5101389;28;20553;-62
2023/02/07 03:43:29;;;;;;;13.03;12.53;;;17.70;50.80;;;;;;5091622;28;20579;-63
2023/02/07 03:45:56;;;;;;;12.17;11.77;;;17.70;50.80;;;;;;5091497;28;20802;-63
2023/02/07 03:48:23;;;;;;;12.97;12.57;;;17.70;50.90;;;;;;5091589;28;20528;-64
2023/02/07 03:50:51;;;;;;;12.70;12.03;;;17.70;50.80;;;;;;5094919;28;20493;-64
2023/02/07 03:53:20;;;;;;;12.40;11.97;;;17.70;50.80;;;;;;5091544;28;20502;-62
2023/02/07 03:55:47;;;;;;;12.30;11.90;;;17.70;50.80;;;;;;5091566;28;20529;-64
2023/02/07 03:58:14;;;;;;;12.43;12.03;;;17.70;50.90;;;;;;5091421;28;20522;-63
2023/02/07 04:00:41;;;;;;;12.60;12.10;;;17.70;50.80;;;;;;5098467;28;20552;-64
2023/02/07 04:03:08;;;;;;;12.37;11.93;;;17.70;50.80;;;;;;5111762;28;20484;-64
2023/02/07 04:05:35;;;;;;;12.40;12.00;;;17.70;50.80;;;;;;5111912;28;21032;-63
2023/02/07 04:08:01;;;;;;;12.57;12.17;;;17.70;50.70;;;;;;5111711;28;20895;-64
2023/02/07 04:10:30;;;;;;;13.40;12.90;;;17.70;50.70;;;;;;5105682;28;20565;-63
2023/02/07 04:12:56;;;;;;;14.20;13.60;;;17.70;50.70;;;;;;5091251;28;20477;-62
2023/02/07 04:15:23;;;;;;;14.37;13.70;;;17.70;50.70;;;;;;5091319;28;20525;-62
2023/02/07 04:17:50;;;;;;;12.97;12.47;;;17.70;50.70;;;;;;5091406;28;20450;-62
2023/02/07 04:20:17;;;;;;;11.90;11.50;;;17.70;50.60;;;;;;5108986;28;20445;-62
2023/02/07 04:22:44;;;;;;;13.13;12.70;;;17.70;50.60;;;;;;5115417;28;20785;-64
2023/02/07 04:25:11;;;;;;;13.47;12.40;;;17.70;50.60;;;;;;5115349;28;20532;-63
2023/02/07 04:27:39;;;;;;;13.80;13.30;;;17.70;50.60;;;;;;5115257;28;20536;-64
2023/02/07 04:30:07;;;;;;;13.47;12.90;;;17.70;50.60;;;;;;5098733;28;20504;-64
2023/02/07 04:32:34;;;;;;;12.97;12.47;;;17.70;50.60;;;;;;5094853;28;20521;-64
2023/02/07 04:35:01;;;;;;;13.67;12.80;;;17.70;50.60;;;;;;5094830;28;20848;-64
2023/02/07 04:37:28;;;;;;;12.60;12.17;;;17.70;50.50;;;;;;5094843;28;20532;-63
2023/02/07 04:39:55;;;;;;;12.93;12.53;;;17.70;50.50;;;;;;5108720;28;20450;-63
2023/02/07 04:42:22;;;;;;;13.70;13.20;;;17.70;50.50;;;;;;5114896;28;21045;-61
2023/02/07 04:44:50;;;;;;;13.27;12.87;;;17.70;50.40;;;;;;5114986;28;20487;-64
2023/02/07 04:47:16;;;;;;;13.30;12.90;;;17.70;50.50;;;;;;5114941;28;20467;-63
2023/02/07 04:49:43;;;;;;;13.33;12.83;;;17.60;50.40;;;;;;5102094;28;20711;-64
2023/02/07 04:52:10;;;;;;;12.37;12.03;;;17.60;50.40;;;;;;5094453;28;20569;-63
2023/02/07 04:54:37;;;;;;;13.33;12.83;;;17.60;50.30;;;;;;5094587;28;20533;-64
2023/02/07 04:57:04;;;;;;;12.33;12.03;;;17.60;50.40;;;;;;5094291;28;20443;-63
2023/02/07 04:59:31;;;;;;;13.30;12.80;;;17.60;50.30;;;;;;5104606;28;20450;-64
2023/02/07 05:01:59;;;;;;;13.30;12.83;;;17.60;50.30;;;;;;5114494;28;20466;-64
2023/02/07 05:04:26;;;;;;;12.23;11.47;;;17.60;50.30;;;;;;5114589;28;20481;-64
2023/02/07 05:06:53;;;;;;;12.30;11.80;;;17.60;50.20;;;;;;5114538;28;20532;-64
2023/02/07 05:09:20;;;;;;;13.10;12.60;;;17.60;50.20;;;;;;5105486;28;20494;-63
2023/02/07 05:11:47;;;;;;;13.03;12.53;;;17.60;50.20;;;;;;5093917;28;20493;-64
2023/02/07 05:14:14;;;;;;;11.93;11.63;;;17.60;50.20;;;;;;5094092;28;20470;-62
2023/02/07 05:16:40;;;;;;;13.27;12.87;;;17.60;50.20;;;;;;5094037;28;20468;-63
2023/02/07 05:19:09;;;;;;;13.20;12.70;;;17.60;50.20;;;;;;5100078;28;21017;-62
2023/02/07 05:21:35;;;;;;;12.00;11.60;;;17.60;50.30;;;;;;5114792;28;20497;-60
2023/02/07 05:24:03;;;;;;;12.90;12.50;;;17.60;50.30;;;;;;5114201;28;20485;-59
2023/02/07 05:26:29;;;;;;;13.70;13.20;;;17.60;50.40;;;;;;5111971;28;20949;-61
2023/02/07 05:28:56;;;;;;;13.70;13.20;;;17.60;50.50;;;;;;5113863;28;20528;-62
2023/02/07 05:33:02;;;;;;;12.30;11.90;;;17.60;50.80;;;;;;5113895;28;20895;-59
2023/02/07 05:34:11;;;;;;;12.03;11.73;;;17.60;50.70;;;;;;5113310;28;20555;-61
2023/02/07 05:36:37;;;;;;;12.40;12.00;;;17.60;50.80;;;;;;5100486;28;20443;-60
2023/02/07 05:39:04;;;;;;;12.40;12.00;;;17.60;50.80;;;;;;5093442;28;20492;-59
2023/02/07 05:41:31;;;;;;;12.70;12.17;;;17.60;50.80;;;;;;5093352;28;20632;-61
2023/02/07 05:43:58;;;;;;;12.53;12.13;;;17.70;50.90;;;;;;5093311;28;20482;-60
2023/02/07 05:46:25;;;;;;;12.80;12.10;;;17.70;50.90;;;;;;5104594;28;20526;-59
2023/02/07 05:48:52;;;;;;;12.77;12.37;;;17.60;50.70;;;;;;5105944;28;20445;-62
2023/02/07 05:51:20;;;;;;;11.90;11.50;;;17.70;50.70;;;;;;5113607;28;20469;-62
2023/02/07 05:53:47;;;;;;;11.50;11.13;;;17.80;50.60;;;;;;5113637;28;20551;-62
2023/02/07 05:56:14;;;;;;;11.83;11.43;;;17.80;50.30;;;;;;5113535;28;20472;-61
2023/02/07 05:58:41;;;;;;;12.47;12.03;;;17.90;50.20;;;;;;5113542;28;20534;-62
2023/02/07 06:01:08;;;;;;;12.43;12.13;;;17.90;50.00;;;;;;5113319;28;20493;-62
2023/02/07 06:03:35;;;;;;;12.03;11.63;;;17.90;49.90;;;;;;5113300;28;20913;-61
2023/02/07 06:06:01;;;;;;;12.53;12.10;;;17.90;49.80;;;;;;5113528;28;20516;-62
2023/02/07 06:08:29;;;;;;;12.90;12.40;;;18.00;49.70;;;;;;5113357;28;20492;-61
2023/02/07 06:10:56;;;;;;;12.53;12.13;;;18.00;49.60;;;;;;5113035;28;20564;-62
2023/02/07 06:13:23;;;;;;;11.90;11.60;;;18.00;49.60;;;;;;5113286;28;20454;-60
2023/02/07 06:15:50;;;;;;;12.80;12.33;;;17.90;49.40;;;;;;5113230;28;20472;-62
2023/02/07 06:18:17;;;;;;;12.33;11.73;;;18.00;49.40;;;;;;5113209;28;20469;-62
2023/02/07 06:20:43;;;;;;;11.57;11.17;;;18.00;49.30;;;;;;5112734;28;20469;-61
2023/02/07 06:23:10;;;;;;;13.00;12.60;;;17.90;49.20;;;;;;5113220;28;20589;-61
2023/02/07 06:25:38;;;;;;;12.07;11.50;;;18.00;49.10;;;;;;5112978;28;20522;-62
2023/02/07 06:28:05;;;;;;;14.03;13.27;;;17.90;49.00;;;;;;5112953;28;20529;-62
2023/02/07 06:30:32;;;;;;;14.07;13.63;;;18.00;49.10;;;;;;5112646;28;20560;-61
2023/02/07 06:32:59;;;;;;;12.27;11.97;;;18.00;49.00;;;;;;5112977;28;20437;-62
2023/02/07 06:35:26;;;;;;;11.90;11.60;;;17.90;48.90;;;;;;5112902;28;20995;-62
2023/02/07 06:37:53;;;;;;;12.83;12.43;;;17.90;48.80;;;;;;5112674;28;20536;-62
2023/02/07 06:40:19;;;;;;;12.70;12.20;;;17.90;49.30;;;;;;5112396;28;20469;-61
2023/02/07 06:42:48;;;;;;;11.80;11.50;;;17.90;48.70;;;;;;5112791;28;21002;-61
2023/02/07 06:45:15;;;;;;;12.23;11.83;;;17.90;48.60;;;;;;5111680;28;20581;-61
2023/02/07 06:47:42;;;;;;;13.13;12.83;;;17.90;48.60;;;;;;5112689;28;20473;-62
2023/02/07 06:50:09;;;;;;;12.93;12.53;;;17.90;48.50;;;;;;5112389;28;20481;-62
2023/02/07 06:52:35;;;;;;;12.57;12.17;;;17.90;48.50;;;;;;5112633;28;20524;-62
2023/02/07 06:55:02;;;;;;;12.83;12.23;;;17.90;48.40;;;;;;5112461;28;20587;-61
2023/02/07 06:57:29;;;;;;;12.80;12.30;;;17.90;48.30;;;;;;5112495;28;20536;-62
2023/02/07 06:59:57;;;;;;;13.03;12.63;;;17.90;48.30;;;;;;5112161;28;20540;-62
2023/02/07 07:02:24;;;;;;;12.87;12.47;;;17.90;48.40;;;;;;5112461;28;20576;-61
2023/02/07 07:04:51;;;;;;;12.80;12.40;;;17.90;48.30;;;;;;5112338;28;20565;-62
2023/02/07 07:07:18;;;;;;;13.20;12.70;;;18.00;48.50;;;;;;5112323;28;20473;-61
2023/02/07 07:09:44;;;;;;;12.03;11.73;;;18.00;48.40;;;;;;5112091;28;20528;-62
2023/02/07 07:12:11;;;;;;;12.50;12.20;;;18.00;48.30;;;;;;5112239;28;20560;-62
2023/02/07 07:14:38;;;;;;;12.80;12.40;;;18.00;48.30;;;;;;5112202;28;20481;-62
2023/02/07 07:17:06;;;;;;;12.43;11.93;;;18.10;48.30;;;;;;5112351;28;20524;-60
2023/02/07 07:19:33;;;;;;;12.90;12.60;;;18.10;48.20;;;;;;5111938;28;20532;-62
2023/02/07 07:22:00;;;;;;;12.30;12.00;;;18.20;48.20;;;;;;5112216;28;20901;-61
2023/02/07 07:24:27;;;;;;;12.40;12.00;;;18.10;48.10;;;;;;5112268;28;20524;-60
2023/02/07 07:26:55;;;;;;;12.70;12.30;;;18.10;48.00;;;;;;5112168;28;20441;-59
2023/02/07 07:29:22;;;;;;;13.20;12.80;;;18.10;48.00;;;;;;5111926;28;20451;-61
2023/02/07 07:31:49;;;;;;;13.27;12.87;;;18.10;47.90;;;;;;5111940;28;20982;-60
2023/02/07 07:34:17;;;;;;;12.50;12.10;;;18.10;47.90;;;;;;5112072;28;20437;-61
2023/02/07 07:36:44;;;;;;;11.93;11.63;;;18.20;47.90;;;;;;5111925;28;20529;-59
2023/02/07 07:39:12;;;;;;;12.57;12.27;;;18.10;47.80;;;;;;5111801;28;20871;-60
2023/02/07 07:41:38;;;;;;;12.10;11.70;;;18.20;47.80;;;;;;5111828;28;20549;-62
2023/02/07 07:44:05;;;;;;;11.50;11.20;;;18.10;47.70;;;;;;5111921;28;20483;-61
2023/02/07 07:46:32;;;;;;;12.20;11.90;;;18.10;47.70;;;;;;5111993;28;20496;-62
2023/02/07 07:48:59;;;;;;;12.57;12.23;;;18.10;47.70;;;;;;5111630;28;20930;-61
2023/02/07 07:51:27;;;;;;;12.00;11.70;;;18.10;47.60;;;;;;5111803;28;20471;-62
2023/02/07 07:53:54;;;;;;;11.80;11.40;;;18.10;47.60;;;;;;5111796;28;20538;-62
2023/02/07 07:56:21;;;;;;;11.77;11.47;;;18.10;47.60;;;;;;5113865;28;20523;-61
2023/02/07 07:58:48;;;;;;;12.07;11.77;;;18.10;47.50;;;;;;5115771;28;20473;-61
2023/02/07 08:01:15;;;;;;;12.50;12.10;;;18.10;47.50;;;;;;5115718;28;20469;-61
2023/02/07 08:03:42;;;;;;;11.50;11.00;;;18.10;47.40;;;;;;5115793;28;20799;-61
2023/02/07 08:06:09;;;;;;;11.40;11.10;;;18.10;47.40;;;;;;5115702;28;20484;-61
2023/02/07 08:08:37;;;;;;;11.63;11.33;;;18.10;47.60;;;;;;5115732;28;20437;-60
2023/02/07 08:11:06;;;;;;;12.40;12.00;;;18.10;47.30;;;;;;5115353;28;20465;-59
2023/02/07 08:13:33;;;;;;;12.30;12.00;;;18.10;47.30;;;;;;5115623;28;20529;-62
2023/02/07 08:16:00;;;;;;;11.83;11.53;;;18.10;47.30;;;;;;5115449;28;20528;-62
2023/02/07 08:18:27;;;;;;;13.70;13.13;;;18.00;47.70;;;;;;5115580;28;20484;-61
2023/02/07 08:20:54;;;;;;;12.57;12.27;;;18.10;47.20;;;;;;5114999;28;20477;-61
2023/02/07 08:23:21;;;;;;;11.93;11.63;;;18.00;47.00;;;;;;5115358;28;20520;-62
2023/02/07 08:25:50;;;;;;;12.07;11.67;;;18.00;47.10;;;;;;5115394;28;20564;-63
2023/02/07 08:28:17;;;;;;;11.50;11.20;;;18.00;47.10;;;;;;5115409;28;20441;-63
2023/02/07 08:30:46;;;;;;;11.47;11.17;;;18.00;47.10;;;;;;5115185;28;21072;-63
2023/02/07 08:33:13;;;;;;;11.90;11.50;;;18.00;47.10;;;;;;5115241;28;20441;-62
2023/02/07 08:35:40;;;;;;;12.13;11.83;;;18.00;47.10;;;;;;5115112;28;20874;-63
2023/02/07 08:38:07;;;;;;;11.60;11.20;;;18.00;47.20;;;;;;5115111;28;20441;-62
2023/02/07 08:40:35;;;;;;;11.70;11.37;;;18.00;47.10;;;;;;5114852;28;20493;-63
2023/02/07 08:43:05;;;;;;;11.77;11.47;;;18.00;47.20;;;;;;5115001;28;20536;-63
2023/02/07 08:45:32;;;;;;;11.97;11.57;;;18.00;47.30;;;;;;5115184;28;20516;-61
2023/02/07 08:47:59;;;;;;;12.10;11.70;;;18.00;47.30;;;;;;5114893;28;20528;-63
2023/02/07 08:50:26;;;;;;;11.33;11.03;;;18.00;47.30;;;;;;5114650;28;20859;-63
2023/02/07 08:52:53;;;;;;;11.60;11.30;;;18.10;47.30;;;;;;5115062;28;20492;-63
2023/02/07 08:55:20;;;;;;;12.37;12.07;;;18.10;47.30;;;;;;5114783;28;20845;-63
2023/02/07 08:57:46;;;;;;;12.30;12.00;;;18.10;47.30;;;;;;5114768;28;20524;-62
2023/02/07 09:00:16;;;;;;;12.90;12.50;;;18.20;47.30;;;;;;5114394;28;20531;-63
2023/02/07 09:02:43;;;;;;;11.77;11.47;;;18.10;47.20;;;;;;5114834;28;20445;-63
2023/02/07 09:05:10;;;;;;;11.97;11.67;;;18.10;47.10;;;;;;5114664;28;20905;-62
2023/02/07 09:07:37;;;;;;;12.30;12.00;;;18.20;47.10;;;;;;5113558;28;20524;-63
2023/02/07 09:10:06;;;;;;;12.80;12.40;;;18.20;47.10;;;;;;5114334;28;20509;-60
2023/02/07 09:12:32;;;;;;;12.83;12.53;;;18.20;47.10;;;;;;5114495;28;20852;-63
2023/02/07 09:14:59;;;;;;;13.37;12.97;;;18.20;47.10;;;;;;5114492;28;20533;-62
2023/02/07 09:17:28;;;;;;;13.37;12.90;;;18.20;47.00;;;;;;5114523;28;20545;-62
2023/02/07 09:19:54;;;;;;;11.90;11.53;;;18.20;47.00;;;;;;5114161;28;20445;-63
2023/02/07 09:22:21;;;;;;;12.83;12.43;;;18.20;46.90;;;;;;5114065;28;20892;-63
2023/02/07 09:24:48;;;;;;;12.47;12.17;;;18.20;46.90;;;;;;5114165;28;20509;-61
2023/02/07 09:27:15;;;;;;;13.00;12.60;;;18.20;46.90;;;;;;5114109;28;20488;-63
2023/02/07 09:29:42;;;;;;;13.00;12.60;;;18.20;46.90;;;;;;5114323;28;20521;-64
2023/02/07 09:32:09;;;;;;;12.53;12.23;;;18.20;46.90;;;;;;5114063;28;20891;-62
2023/02/07 09:34:37;;;;;;;12.30;12.00;;;18.20;46.90;;;;;;5114027;28;20524;-62
2023/02/07 09:37:04;;;;;;;12.30;12.00;;;18.20;46.80;;;;;;5114068;28;20532;-60
2023/02/07 09:39:32;;;;;;;12.67;12.27;;;18.20;46.80;;;;;;5113714;28;20533;-63
2023/02/07 09:42:09;;;;;;;12.37;12.07;;;18.10;46.80;;;;;;5114108;28;20457;-63
2023/02/07 09:44:46;;;;;;;12.20;11.90;;;18.20;46.80;;;;;;5113855;28;20937;-62
2023/02/07 09:47:17;;;;;;;11.83;11.50;;;18.10;46.70;;;;;;5113900;28;20532;-63
2023/02/07 09:49:50;;;;;;;12.07;11.77;;;18.10;46.70;;;;;;5113421;28;20982;-60
2023/02/07 09:52:19;;;;;;;12.30;12.00;;;18.10;46.70;;;;;;5113688;28;20895;-62
2023/02/07 09:54:50;;;;;;;12.43;12.03;;;18.10;46.60;;;;;;5113571;28;21018;-62
2023/02/07 09:57:22;;;;;;;11.53;11.23;;;18.10;46.60;;;;;;5113758;28;20529;-63
2023/02/07 09:59:54;;;;;;;12.63;12.33;;;18.10;46.60;;;;;;5113430;28;20536;-63
2023/02/07 10:02:25;;;;;;;11.67;11.37;;;18.10;46.50;;;;;;5113445;28;20863;-62
2023/02/07 10:04:58;;;;;;;12.20;11.77;;;18.10;46.50;;;;;;5113361;28;20557;-62
2023/02/07 10:07:25;;;;;;;11.80;11.40;;;18.00;46.40;;;;;;5113436;28;20520;-61
2023/02/07 10:09:52;;;;;;;12.30;11.90;;;18.10;46.60;;;;;;5113133;28;20558;-62
2023/02/07 10:12:46;;;;;;;12.60;12.20;;;18.00;46.40;;;;;;5113241;28;20554;-62
2023/02/07 10:15:41;;;;;;;11.53;11.23;;;18.00;46.40;;;;;;5103293;28;20532;-63
2023/02/07 10:18:28;;;;;;;12.23;11.87;;;18.00;46.40;;;;;;5113045;28;20525;-61
2023/02/07 10:21:01;;;;;;;11.70;11.40;;;18.00;46.40;;;;;;5112839;28;20473;-61
2023/02/07 10:23:41;;;;;;;11.30;11.00;;;18.00;46.40;;;;;;5113063;28;20448;-59
2023/02/07 10:26:15;;;;;;;11.57;11.27;;;18.00;46.50;;;;;;5112993;28;20911;-62
2023/02/07 10:28:58;;;;;;;12.13;11.83;;;18.00;46.60;;;;;;5112945;28;21025;-62
2023/02/07 10:31:26;;;;;;;11.80;11.50;;;18.00;46.60;;;;;;5112723;28;20552;-63
2023/02/07 10:33:58;;;;;;;11.60;11.30;;;18.00;46.60;;;;;;5112945;28;20484;-62
2023/02/07 10:36:28;;;;;;;11.90;11.60;;;18.00;46.70;;;;;;5112895;28;20435;-61
2023/02/07 10:39:03;;;;;;;11.90;11.60;;;18.00;46.60;;;;;;5112755;28;20446;-64
2023/02/07 10:41:36;;;;;;;11.23;10.93;;;18.10;46.70;;;;;;5112757;28;20878;-63
2023/02/07 10:44:04;;;;;;;11.33;11.03;;;18.20;46.70;;;;;;5112763;28;20878;-62
2023/02/07 10:46:32;;;;;;;11.57;11.27;;;18.20;46.60;;;;;;5112715;28;20503;-63
2023/02/07 10:48:59;;;;;;;12.27;11.97;;;18.20;46.60;;;;;;5112421;28;20544;-61
2023/02/07 10:51:33;;;;;;;11.73;11.43;;;18.20;46.60;;;;;;5112822;28;20462;-62
2023/02/07 10:54:07;;;;;;;13.00;12.70;;;18.20;46.60;;;;;;5112618;28;20445;-61
2023/02/07 10:56:37;;;;;;;11.70;11.40;;;18.20;46.50;;;;;;5112470;28;20486;-62
2023/02/07 10:59:04;;;;;;;12.27;11.90;;;18.20;46.50;;;;;;5112585;28;20451;-61
2023/02/07 11:01:34;;;;;;;11.70;11.40;;;18.20;46.50;;;;;;5112526;28;20568;-60
2023/02/07 11:04:01;;;;;;;12.33;11.93;;;18.20;46.50;;;;;;5112410;28;20528;-60
2023/02/07 11:06:31;;;;;;;11.40;11.10;;;18.20;46.50;;;;;;5112354;28;20485;-62
2023/02/07 11:09:13;;;;;;;11.80;11.50;;;18.20;46.50;;;;;;5112177;28;20482;-62
2023/02/07 11:11:42;;;;;;;11.80;11.50;;;18.20;46.40;;;;;;5112186;28;20544;-62
2023/02/07 11:14:16;;;;;;;11.70;11.40;;;18.20;46.40;;;;;;5112406;28;20449;-61
2023/02/07 11:16:44;;;;;;;12.63;12.33;;;18.20;46.40;;;;;;5112327;28;20851;-61
2023/02/07 11:19:17;;;;;;;12.30;12.00;;;18.20;46.40;;;;;;5111994;28;21001;-61
2023/02/07 11:21:47;;;;;;;12.00;11.60;;;18.20;46.40;;;;;;5112809;28;20833;-63
2023/02/07 11:24:17;;;;;;;12.43;12.13;;;18.20;46.60;;;;;;5112278;28;20442;-63
2023/02/07 11:26:57;;;;;;;12.77;12.47;;;18.20;46.40;;;;;;5112178;28;20571;-63
2023/02/07 11:29:25;;;;;;;12.13;11.83;;;18.20;46.70;;;;;;5112027;28;20523;-63
2023/02/07 11:31:54;;;;;;;12.73;12.33;;;18.20;46.30;;;;;;5111436;28;20505;-64
2023/02/07 11:34:38;;;;;;;12.50;12.20;;;18.20;46.30;;;;;;5104466;28;20464;-57
2023/02/07 11:37:23;;;;;;;12.97;12.60;;;18.20;46.30;;;;;;5104316;28;20473;-63
2023/02/07 11:39:53;;;;;;;13.60;13.17;;;18.20;46.40;;;;;;5110424;28;20532;-62
2023/02/07 11:42:22;;;;;;;12.73;12.43;;;18.10;46.50;;;;;;5111853;28;20560;-62
2023/02/07 11:44:51;;;;;;;12.00;11.70;;;18.10;46.60;;;;;;5095232;28;20529;-62
2023/02/07 11:47:21;;;;;;;12.73;12.43;;;18.20;46.60;;;;;;5091433;28;20478;-62
2023/02/07 11:49:51;;;;;;;11.97;11.67;;;18.20;46.50;;;;;;5091463;28;20987;-61
2023/02/07 11:52:19;;;;;;;13.50;13.00;;;18.20;46.50;;;;;;5091487;28;20474;-62
2023/02/07 11:54:52;;;;;;;12.03;11.73;;;18.30;46.40;;;;;;5092819;28;20446;-60
2023/02/07 11:57:21;;;;;;;12.57;12.27;;;18.30;46.40;;;;;;5092234;28;20862;-60
2023/02/07 11:59:53;;;;;;;12.93;12.63;;;18.30;46.30;;;;;;5091830;28;20819;-60
2023/02/07 12:02:22;;;;;;;13.47;13.07;;;18.30;46.20;;;;;;5100274;28;20556;-60
2023/02/07 12:04:50;;;;;;;12.90;12.50;;;18.40;46.20;;;;;;5098352;28;20451;-59
2023/02/07 12:07:21;;;;;;;10.80;10.50;;;18.40;46.20;;;;;;5091636;28;20535;-62
2023/02/07 12:09:52;;;;;;;13.77;13.37;;;18.50;46.40;;;;;;5091247;28;20529;-62
2023/02/07 12:12:23;;;;;;;12.93;12.63;;;18.60;46.20;;;;;;5091172;28;20904;-62
2023/02/07 12:14:54;;;;;;;13.90;13.50;;;18.80;46.20;;;;;;5091142;28;20860;-62
2023/02/07 12:17:27;;;;;;;13.80;13.40;;;18.80;46.10;;;;;;5091625;28;20446;-62
2023/02/07 12:19:56;;;;;;;13.67;13.30;;;18.80;46.10;;;;;;5091120;28;20442;-62
2023/02/07 12:22:28;;;;;;;13.63;13.33;;;18.80;46.20;;;;;;5091181;28;20470;-63
2023/02/07 12:25:02;;;;;;;11.83;11.53;;;18.80;46.30;;;;;;5091391;28;20457;-62
2023/02/07 12:27:34;;;;;;;13.10;12.70;;;18.80;46.30;;;;;;5091219;28;20482;-61
2023/02/07 12:30:10;;;;;;;13.10;12.80;;;18.80;46.30;;;;;;5090968;28;20449;-61
2023/02/07 12:32:44;;;;;;;13.27;12.87;;;18.80;46.40;;;;;;5091119;28;20450;-63
2023/02/07 12:35:19;;;;;;;12.43;12.13;;;18.90;46.50;;;;;;5091236;28;20443;-63
2023/02/07 12:37:52;;;;;;;13.00;12.60;;;18.80;46.40;;;;;;5091318;28;20460;-62
2023/02/07 12:40:28;;;;;;;12.63;12.33;;;18.90;46.50;;;;;;5090931;28;20880;-62